createdAt,value
2023-02-17T00:01:23.749Z,24.63
2023-02-17T00:03:51.926Z,22.42
2023-02-17T00:06:25.224Z,15.85
2023-02-17T00:08:52.252Z,24.10
2023-02-17T00:11:20.433Z,22.48
2023-02-17T00:13:47.869Z,18.08
2023-02-17T00:16:23.538Z,20.85
2023-02-17T00:19:00.227Z,23.02
2023-02-17T00:21:30.273Z,17.20
2023-02-17T00:26:25.759Z,18.65
2023-02-17T00:28:52.671Z,21.08
2023-02-17T00:31:23.161Z,16.10
2023-02-17T00:33:55.762Z,17.77
2023-02-17T00:36:23.121Z,15.95
2023-02-17T00:38:50.248Z,19.98
2023-02-17T00:41:18.946Z,17.52
2023-02-17T00:43:47.075Z,16.15
2023-02-17T00:46:17.369Z,18.75
2023-02-17T00:48:45.582Z,14.85
2023-02-17T00:51:12.974Z,22.52
2023-02-17T00:53:39.927Z,22.00
2023-02-17T00:56:07.990Z,17.92
2023-02-17T00:58:36.291Z,16.98
2023-02-17T01:01:04.187Z,15.40
2023-02-17T01:03:31.337Z,19.02
2023-02-17T01:05:58.289Z,20.17
2023-02-17T01:08:25.901Z,14.65
2023-02-17T01:10:53.506Z,15.88
2023-02-17T01:13:20.858Z,21.58
2023-02-17T01:15:52.354Z,13.50
2023-02-17T01:18:23.709Z,16.55
2023-02-17T01:20:51.404Z,12.85
2023-02-17T01:23:18.536Z,14.40
2023-02-17T01:25:47.428Z,20.33
2023-02-17T01:28:19.706Z,19.92
2023-02-17T01:30:47.517Z,17.83
2023-02-17T01:33:14.633Z,21.13
2023-02-17T01:35:41.735Z,18.38
2023-02-17T01:38:08.754Z,17.48
2023-02-17T01:40:35.703Z,17.83
2023-02-17T01:43:02.893Z,17.85
2023-02-17T01:45:44.141Z,21.15
2023-02-17T01:48:16.985Z,19.50
2023-02-17T01:51:17.186Z,19.65
2023-02-17T01:53:56.362Z,16.48
2023-02-17T01:56:25.277Z,16.50
2023-02-17T01:59:05.689Z,15.93
2023-02-17T02:01:32.839Z,17.63
2023-02-17T02:04:03.919Z,17.80
2023-02-17T02:06:32.266Z,18.52
2023-02-17T02:09:11.674Z,17.42
2023-02-17T02:11:38.913Z,18.30
2023-02-17T02:14:09.058Z,22.80
2023-02-17T02:16:49.626Z,17.92
2023-02-17T02:20:00.397Z,19.17
2023-02-17T02:23:00.717Z,16.83
2023-02-17T02:26:15.977Z,16.85
2023-02-17T02:29:26.160Z,14.70
2023-02-17T02:32:44.558Z,19.50
2023-02-17T02:35:37.702Z,16.65
2023-02-17T02:38:21.680Z,17.45
2023-02-17T02:41:23.740Z,17.67
2023-02-17T02:43:52.721Z,17.67
2023-02-17T02:46:19.868Z,13.68
2023-02-17T02:48:47.352Z,12.02
2023-02-17T02:51:14.247Z,15.13
2023-02-17T02:53:59.061Z,15.45
2023-02-17T02:57:01.639Z,16.17
2023-02-17T02:59:58.068Z,21.10
2023-02-17T03:02:57.581Z,14.00
2023-02-17T03:06:15.821Z,12.63
2023-02-17T03:09:00.999Z,13.30
2023-02-17T03:11:35.256Z,13.95
2023-02-17T03:14:13.006Z,12.93
2023-02-17T03:16:41.913Z,15.93
2023-02-17T03:19:10.686Z,17.67
2023-02-17T03:22:09.290Z,14.50
2023-02-17T03:24:36.283Z,14.80
2023-02-17T03:27:06.428Z,13.63
2023-02-17T03:29:33.627Z,13.63
2023-02-17T03:32:01.256Z,15.57
2023-02-17T03:34:28.377Z,15.75
2023-02-17T03:36:55.311Z,11.45
2023-02-17T03:39:22.172Z,9.48
2023-02-17T03:41:51.626Z,12.45
2023-02-17T03:44:18.938Z,9.55
2023-02-17T03:46:47.094Z,12.98
2023-02-17T03:49:13.993Z,13.02
2023-02-17T03:51:41.029Z,12.35
2023-02-17T03:54:07.977Z,14.25
2023-02-17T03:56:34.887Z,10.75
2023-02-17T03:59:01.866Z,14.85
2023-02-17T04:01:28.869Z,14.70
2023-02-17T04:03:55.881Z,12.52
2023-02-17T04:06:22.982Z,16.27
2023-02-17T04:08:49.994Z,14.75
2023-02-17T04:11:17.028Z,14.13
2023-02-17T04:13:44.088Z,11.57
2023-02-17T04:16:11.588Z,13.32
2023-02-17T04:18:39.344Z,14.40
2023-02-17T04:21:07.189Z,12.70
2023-02-17T04:23:36.947Z,12.40
2023-02-17T04:26:06.600Z,13.48
2023-02-17T04:28:34.555Z,13.25
2023-02-17T04:31:01.553Z,16.15
2023-02-17T04:33:28.649Z,13.50
2023-02-17T04:35:59.534Z,14.95
2023-02-17T04:38:29.330Z,12.50
2023-02-17T04:40:57.804Z,13.43
2023-02-17T04:43:31.944Z,10.23
2023-02-17T04:45:59.173Z,12.73
2023-02-17T04:48:26.839Z,11.38
2023-02-17T04:50:57.365Z,10.63
2023-02-17T04:53:24.290Z,13.88
2023-02-17T04:55:52.956Z,14.27
2023-02-17T04:58:20.513Z,15.45
2023-02-17T05:00:50.163Z,13.95
2023-02-17T05:03:18.706Z,14.43
2023-02-17T05:05:45.681Z,12.43
2023-02-17T05:08:12.545Z,13.02
2023-02-17T05:10:39.432Z,15.68
2023-02-17T05:13:06.336Z,11.75
2023-02-17T05:15:34.962Z,11.77
2023-02-17T05:18:02.600Z,12.80
2023-02-17T05:20:29.624Z,10.90
2023-02-17T05:22:56.683Z,10.88
2023-02-17T05:25:23.796Z,13.18
2023-02-17T05:27:50.752Z,13.48
2023-02-17T05:30:17.764Z,12.48
2023-02-17T05:32:44.654Z,11.18
2023-02-17T05:35:11.968Z,14.02
2023-02-17T05:37:39.005Z,11.98
2023-02-17T05:40:07.553Z,13.38
2023-02-17T05:42:34.468Z,13.10
2023-02-17T05:45:01.483Z,14.82
2023-02-17T05:47:28.500Z,11.18
2023-02-17T05:49:55.445Z,14.73
2023-02-17T05:52:22.360Z,11.60
2023-02-17T05:54:49.267Z,13.52
2023-02-17T05:57:16.272Z,13.57
2023-02-17T05:59:43.313Z,12.27
2023-02-17T06:02:10.366Z,14.68
2023-02-17T06:04:37.396Z,12.65
2023-02-17T06:07:04.502Z,12.43
2023-02-17T06:09:31.592Z,14.82
2023-02-17T06:11:58.569Z,11.45
2023-02-17T06:14:25.471Z,14.73
2023-02-17T06:16:53.858Z,11.75
2023-02-17T06:19:20.760Z,10.70
2023-02-17T06:21:47.729Z,13.07
2023-02-17T06:24:14.662Z,10.05
2023-02-17T06:26:41.770Z,11.98
2023-02-17T06:29:08.727Z,11.63
2023-02-17T06:31:35.739Z,11.98
2023-02-17T06:34:04.743Z,12.75
2023-02-17T06:36:33.085Z,10.95
2023-02-17T06:38:59.983Z,12.02
2023-02-17T06:41:26.877Z,10.70
2023-02-17T06:43:54.027Z,12.73
2023-02-17T06:46:21.576Z,12.93
2023-02-17T06:48:48.914Z,13.63
2023-02-17T06:51:15.889Z,10.82
2023-02-17T06:53:42.942Z,10.98
2023-02-17T06:56:09.836Z,12.45
2023-02-17T06:58:37.606Z,12.38
2023-02-17T07:01:05.644Z,15.45
2023-02-17T07:03:32.916Z,14.98
2023-02-17T07:06:00.156Z,13.82
2023-02-17T07:08:27.073Z,14.63
2023-02-17T07:10:54.538Z,16.75
2023-02-17T07:13:21.591Z,12.20
2023-02-17T07:15:48.503Z,14.05
2023-02-17T07:18:15.428Z,12.13
2023-02-17T07:20:42.438Z,13.20
2023-02-17T07:23:09.827Z,16.17
2023-02-17T07:25:36.832Z,14.18
2023-02-17T07:28:03.821Z,14.13
2023-02-17T07:30:30.958Z,12.32
2023-02-17T07:32:57.954Z,14.13
2023-02-17T07:35:24.905Z,12.57
2023-02-17T07:37:51.945Z,12.77
2023-02-17T07:40:19.211Z,11.60
2023-02-17T07:42:46.094Z,11.27
2023-02-17T07:45:13.941Z,12.48
2023-02-17T07:47:40.925Z,12.60
2023-02-17T07:50:08.841Z,13.02
2023-02-17T07:52:35.775Z,10.75
2023-02-17T07:55:02.825Z,10.00
2023-02-17T07:57:30.770Z,10.90
2023-02-17T07:59:57.655Z,10.77
2023-02-17T08:02:24.548Z,11.27
2023-02-17T08:04:52.889Z,11.95
2023-02-17T08:07:19.970Z,9.73
2023-02-17T08:10:06.315Z,8.93
2023-02-17T08:12:51.561Z,8.50
2023-02-17T08:15:18.488Z,9.65
2023-02-17T08:17:45.458Z,8.95
2023-02-17T08:20:15.045Z,10.57
2023-02-17T08:22:41.932Z,9.45
2023-02-17T08:25:08.932Z,10.40
2023-02-17T08:27:35.893Z,9.18
2023-02-17T08:30:03.485Z,7.70
2023-02-17T08:32:30.497Z,10.70
2023-02-17T08:34:57.783Z,9.15
2023-02-17T08:37:24.750Z,11.07
2023-02-17T08:39:51.842Z,13.05
2023-02-17T08:42:19.756Z,10.20
2023-02-17T08:44:46.712Z,9.63
2023-02-17T08:47:13.667Z,9.40
2023-02-17T08:49:40.959Z,10.85
2023-02-17T08:52:08.183Z,10.80
2023-02-17T08:54:35.459Z,9.63
2023-02-17T08:57:02.470Z,10.55
2023-02-17T08:59:29.388Z,11.50
2023-02-17T09:01:56.551Z,10.57
2023-02-17T09:04:23.690Z,12.05
2023-02-17T09:06:53.593Z,10.00
2023-02-17T09:09:23.280Z,11.10
2023-02-17T09:11:50.218Z,13.05
2023-02-17T09:14:17.177Z,14.02
2023-02-17T09:16:44.141Z,11.10
2023-02-17T09:19:11.166Z,12.18
2023-02-17T09:21:38.108Z,11.90
2023-02-17T09:24:05.541Z,12.77
2023-02-17T09:26:35.007Z,12.20
2023-02-17T09:29:03.952Z,10.77
2023-02-17T09:31:31.985Z,11.13
2023-02-17T09:33:59.446Z,11.30
2023-02-17T09:36:33.458Z,10.00
2023-02-17T09:39:01.685Z,12.50
2023-02-17T09:41:39.732Z,11.80
2023-02-17T09:44:17.051Z,15.40
2023-02-17T09:47:02.484Z,12.05
2023-02-17T09:49:43.175Z,11.25
2023-02-17T09:52:25.852Z,12.05
2023-02-17T09:55:09.063Z,12.82
2023-02-17T09:58:07.350Z,10.88
2023-02-17T10:00:40.846Z,12.25
2023-02-17T10:03:22.127Z,12.65
2023-02-17T10:06:15.595Z,14.40
2023-02-17T10:09:24.344Z,12.98
2023-02-17T10:12:02.001Z,14.57
2023-02-17T10:14:44.066Z,11.85
2023-02-17T10:17:32.180Z,11.43
2023-02-17T10:20:13.516Z,14.65
2023-02-17T10:22:46.286Z,11.18
2023-02-17T10:25:20.346Z,11.48
2023-02-17T10:28:22.576Z,11.25
2023-02-17T10:31:58.617Z,14.25
2023-02-17T10:34:48.694Z,11.52
2023-02-17T10:37:47.185Z,11.45
2023-02-17T10:40:25.400Z,13.95
2023-02-17T10:43:01.554Z,21.80
2023-02-17T10:45:30.837Z,13.88
2023-02-17T10:48:12.797Z,11.75
2023-02-17T10:50:43.083Z,15.32
2023-02-17T10:53:20.531Z,17.05
2023-02-17T10:56:05.038Z,12.32
2023-02-17T10:59:00.679Z,11.68
2023-02-17T11:01:29.168Z,12.70
2023-02-17T11:04:12.277Z,11.10
2023-02-17T11:06:55.243Z,10.75
2023-02-17T11:09:32.835Z,11.48
2023-02-17T11:12:27.037Z,13.65
2023-02-17T11:14:55.757Z,12.45
2023-02-17T11:17:38.195Z,12.38
2023-02-17T11:20:26.997Z,14.25
2023-02-17T11:23:14.065Z,13.68
2023-02-17T11:25:42.480Z,14.65
2023-02-17T11:28:26.176Z,12.07
2023-02-17T11:30:57.662Z,11.15
2023-02-17T11:33:38.967Z,9.25
2023-02-17T11:36:13.540Z,10.95
2023-02-17T11:38:40.350Z,11.32
2023-02-17T11:41:08.680Z,15.38
2023-02-17T11:43:36.882Z,14.95
2023-02-17T11:46:49.631Z,12.80
2023-02-17T11:50:06.553Z,13.85
2023-02-17T11:53:03.660Z,15.23
2023-02-17T11:56:08.135Z,26.38
2023-02-17T11:59:09.372Z,18.33
2023-02-17T12:02:07.941Z,28.63
2023-02-17T12:04:48.694Z,14.13
2023-02-17T12:07:53.595Z,11.38
2023-02-17T12:10:46.069Z,11.77
2023-02-17T12:13:52.105Z,10.52
2023-02-17T12:16:55.810Z,11.07
2023-02-17T12:19:53.909Z,12.90
2023-02-17T12:22:42.305Z,14.10
2023-02-17T12:25:28.850Z,15.45
2023-02-17T12:28:43.121Z,13.43
2023-02-17T12:31:27.857Z,14.25
2023-02-17T12:34:03.810Z,14.45
2023-02-17T12:36:39.432Z,14.10
2023-02-17T12:39:21.381Z,12.32
2023-02-17T12:42:15.169Z,13.45
2023-02-17T12:44:48.229Z,11.10
2023-02-17T12:47:29.594Z,13.05
2023-02-17T12:50:06.922Z,12.15
2023-02-17T12:52:44.102Z,14.73
2023-02-17T12:55:21.895Z,11.77
2023-02-17T12:58:04.173Z,10.15
2023-02-17T13:00:42.665Z,9.73
2023-02-17T13:03:10.913Z,15.30
2023-02-17T13:05:59.423Z,16.90
2023-02-17T13:08:40.146Z,12.15
2023-02-17T13:11:14.001Z,13.88
2023-02-17T13:13:41.060Z,14.00
2023-02-17T13:16:14.230Z,12.25
2023-02-17T13:18:44.917Z,10.85
2023-02-17T13:21:22.833Z,10.32
2023-02-17T13:24:14.452Z,9.93
2023-02-17T13:26:43.957Z,9.73
2023-02-17T13:29:33.712Z,10.40
2023-02-17T13:34:39.413Z,10.15
2023-02-17T13:37:23.562Z,10.15
2023-02-17T13:39:50.727Z,13.02
2023-02-17T13:42:34.789Z,14.80
2023-02-17T13:45:10.958Z,11.95
2023-02-17T13:47:41.196Z,8.63
2023-02-17T13:50:32.826Z,8.85
2023-02-17T13:53:02.253Z,8.60
2023-02-17T13:55:29.518Z,8.23
2023-02-17T13:57:59.069Z,8.07
2023-02-17T14:00:32.280Z,8.68
2023-02-17T14:03:16.371Z,7.22
2023-02-17T14:05:46.054Z,7.47
2023-02-17T14:08:36.640Z,7.35
2023-02-17T14:11:15.682Z,9.60
2023-02-17T14:13:48.371Z,7.70
2023-02-17T14:16:37.255Z,8.75
2023-02-17T14:19:19.048Z,7.43
2023-02-17T14:22:02.657Z,7.95
2023-02-17T14:24:35.239Z,7.95
2023-02-17T14:27:08.820Z,7.85
2023-02-17T14:29:45.861Z,8.25
2023-02-17T14:32:37.500Z,9.30
2023-02-17T14:35:13.756Z,10.32
2023-02-17T14:37:42.419Z,8.80
2023-02-17T14:40:23.290Z,7.75
2023-02-17T14:42:51.137Z,11.07
2023-02-17T14:45:19.017Z,8.38
2023-02-17T14:47:46.777Z,8.90
2023-02-17T14:50:14.893Z,9.20
2023-02-17T14:52:46.425Z,9.90
2023-02-17T14:55:44.545Z,9.93
2023-02-17T14:58:29.201Z,9.48
2023-02-17T15:00:56.647Z,9.52
2023-02-17T15:03:23.722Z,7.65
2023-02-17T15:05:51.435Z,8.27
2023-02-17T15:08:32.572Z,10.27
2023-02-17T15:11:00.267Z,10.38
2023-02-17T15:13:27.184Z,8.68
2023-02-17T15:15:54.163Z,10.93
2023-02-17T15:18:21.280Z,13.27
2023-02-17T15:20:50.840Z,9.70
2023-02-17T15:23:23.909Z,8.57
2023-02-17T15:25:51.061Z,10.48
2023-02-17T15:28:20.604Z,9.55
2023-02-17T15:30:52.785Z,11.00
2023-02-17T15:33:21.497Z,9.63
2023-02-17T15:35:53.708Z,9.93
2023-02-17T15:38:21.369Z,9.65
2023-02-17T15:40:48.339Z,9.73
2023-02-17T15:43:21.896Z,9.98
2023-02-17T15:45:49.174Z,9.68
2023-02-17T15:48:26.674Z,9.63
2023-02-17T15:50:54.347Z,9.63
2023-02-17T15:53:21.700Z,8.90
2023-02-17T15:55:49.102Z,11.88
2023-02-17T15:58:21.960Z,10.52
2023-02-17T16:00:51.060Z,10.13
2023-02-17T16:03:18.580Z,10.13
2023-02-17T16:05:45.681Z,10.20
2023-02-17T16:08:12.755Z,11.25
2023-02-17T16:10:42.416Z,9.63
2023-02-17T16:13:14.589Z,10.68
2023-02-17T16:15:42.616Z,11.20
2023-02-17T16:18:23.273Z,9.95
2023-02-17T16:20:51.538Z,10.35
2023-02-17T16:23:18.534Z,13.40
2023-02-17T16:25:47.020Z,10.65
2023-02-17T16:28:19.345Z,10.05
2023-02-17T16:30:49.369Z,8.68
2023-02-17T16:35:44.682Z,8.55
2023-02-17T16:38:23.360Z,8.52
2023-02-17T16:40:53.037Z,9.02
2023-02-17T16:43:24.214Z,8.32
2023-02-17T16:46:03.214Z,7.78
2023-02-17T16:48:34.337Z,8.90
2023-02-17T16:51:01.609Z,8.25
2023-02-17T16:53:28.587Z,8.85
2023-02-17T16:55:56.444Z,8.82
2023-02-17T16:58:26.401Z,9.55
2023-02-17T17:03:22.606Z,8.68
2023-02-17T17:05:52.278Z,8.82
2023-02-17T17:08:21.556Z,7.90
2023-02-17T17:10:49.334Z,8.80
2023-02-17T17:13:16.386Z,8.50
2023-02-17T17:15:46.059Z,7.78
2023-02-17T17:18:20.943Z,7.88
2023-02-17T17:20:48.357Z,7.78
2023-02-17T17:23:16.040Z,6.80
2023-02-17T17:25:46.487Z,7.07
2023-02-17T17:28:16.827Z,6.65
2023-02-17T17:30:43.875Z,6.97
2023-02-17T17:33:10.948Z,7.03
2023-02-17T17:35:38.345Z,5.82
2023-02-17T17:38:05.832Z,5.50
2023-02-17T17:40:48.836Z,6.35
2023-02-17T17:43:20.049Z,6.60
2023-02-17T17:45:49.379Z,5.85
2023-02-17T17:48:19.834Z,8.45
2023-02-17T17:50:49.745Z,6.55
2023-02-17T17:53:16.661Z,6.15
2023-02-17T17:55:43.616Z,6.28
2023-02-17T17:58:10.563Z,7.35
2023-02-17T18:00:37.521Z,6.13
2023-02-17T18:03:05.310Z,6.25
2023-02-17T18:05:32.217Z,6.82
2023-02-17T18:07:59.259Z,6.38
2023-02-17T18:10:26.319Z,6.28
2023-02-17T18:12:53.409Z,6.50
2023-02-17T18:15:20.571Z,6.50
2023-02-17T18:17:48.766Z,6.28
2023-02-17T18:20:16.397Z,6.53
2023-02-17T18:22:43.869Z,6.65
2023-02-17T18:25:11.034Z,6.32
2023-02-17T18:27:45.080Z,5.22
2023-02-17T18:30:18.073Z,5.30
2023-02-17T18:32:45.873Z,5.47
2023-02-17T18:35:13.719Z,5.32
2023-02-17T18:37:41.022Z,4.97
2023-02-17T18:40:13.231Z,5.53
2023-02-17T18:42:41.979Z,6.03
2023-02-17T18:45:09.856Z,5.57
2023-02-17T18:47:36.837Z,5.70
2023-02-17T18:50:07.135Z,5.68
2023-02-17T18:52:34.197Z,4.65
2023-02-17T18:55:01.258Z,5.93
2023-02-17T18:57:28.144Z,6.32
2023-02-17T18:59:55.023Z,5.47
2023-02-17T19:02:22.067Z,5.53
2023-02-17T19:04:52.395Z,8.32
2023-02-17T19:07:21.108Z,8.43
2023-02-17T19:09:51.627Z,5.43
2023-02-17T19:12:18.809Z,5.13
2023-02-17T19:14:45.744Z,5.35
2023-02-17T19:17:12.980Z,5.97
2023-02-17T19:19:41.526Z,7.10
2023-02-17T19:22:09.436Z,5.35
2023-02-17T19:24:41.858Z,6.00
2023-02-17T19:27:10.503Z,6.88
2023-02-17T19:29:37.558Z,7.45
2023-02-17T19:32:04.944Z,6.82
2023-02-17T19:34:32.322Z,5.82
2023-02-17T19:36:59.264Z,5.28
2023-02-17T19:39:26.272Z,6.53
2023-02-17T19:41:53.189Z,5.70
2023-02-17T19:44:20.206Z,5.78
2023-02-17T19:46:47.190Z,5.65
2023-02-17T19:49:14.622Z,5.80
2023-02-17T19:51:41.632Z,5.63
2023-02-17T19:54:08.570Z,5.75
2023-02-17T19:56:36.366Z,4.97
2023-02-17T19:59:03.377Z,5.00
2023-02-17T20:01:33.520Z,5.70
2023-02-17T20:04:03.715Z,5.03
2023-02-17T20:09:04.979Z,6.63
2023-02-17T20:11:32.456Z,4.45
2023-02-17T20:14:02.908Z,4.75
2023-02-17T20:16:30.953Z,6.47
2023-02-17T20:19:00.638Z,5.00
2023-02-17T20:21:30.356Z,5.35
2023-02-17T20:23:58.068Z,5.43
2023-02-17T20:26:31.444Z,4.63
2023-02-17T20:28:59.358Z,4.60
2023-02-17T20:31:27.122Z,4.35
2023-02-17T20:33:54.530Z,4.80
2023-02-17T20:36:22.260Z,4.63
2023-02-17T20:38:50.043Z,4.72
2023-02-17T20:41:20.516Z,4.75
2023-02-17T20:43:48.008Z,4.50
2023-02-17T20:46:22.276Z,5.22
2023-02-17T20:48:49.271Z,3.88
2023-02-17T20:51:16.595Z,4.60
2023-02-17T20:53:43.572Z,4.95
2023-02-17T20:56:17.009Z,6.13
2023-02-17T20:58:44.336Z,5.68
2023-02-17T21:01:11.302Z,4.18
2023-02-17T21:03:38.576Z,4.65
2023-02-17T21:06:26.452Z,6.18
2023-02-17T21:09:00.398Z,4.65
2023-02-17T21:11:28.247Z,4.18
2023-02-17T21:13:55.706Z,4.15
2023-02-17T21:16:27.432Z,3.80
2023-02-17T21:18:54.955Z,4.82
2023-02-17T21:21:21.877Z,4.10
2023-02-17T21:23:48.892Z,4.13
2023-02-17T21:26:17.066Z,4.45
2023-02-17T21:28:45.329Z,4.03
2023-02-17T21:31:14.761Z,4.75
2023-02-17T21:33:42.800Z,3.50
2023-02-17T21:36:12.819Z,4.68
2023-02-17T21:38:40.332Z,4.15
2023-02-17T21:41:11.820Z,4.15
2023-02-17T21:43:58.829Z,5.35
2023-02-17T21:46:27.372Z,4.50
2023-02-17T21:48:56.367Z,4.05
2023-02-17T21:51:23.569Z,4.22
2023-02-17T21:53:50.690Z,4.50
2023-02-17T21:56:17.561Z,4.47
2023-02-17T21:58:50.428Z,4.88
2023-02-17T22:01:17.673Z,5.05
2023-02-17T22:03:44.674Z,3.50
2023-02-17T22:06:24.197Z,4.72
2023-02-17T22:08:52.164Z,3.92
2023-02-17T22:11:40.498Z,4.88
2023-02-17T22:14:13.355Z,4.22
2023-02-17T22:16:41.138Z,4.38
2023-02-17T22:19:13.926Z,3.40
2023-02-17T22:21:42.583Z,3.75
2023-02-17T22:24:09.731Z,4.63
2023-02-17T22:26:36.762Z,4.35
2023-02-17T22:29:05.202Z,3.92
2023-02-17T22:31:33.614Z,3.92
2023-02-17T22:34:04.961Z,4.90
2023-02-17T22:36:35.517Z,4.70
2023-02-17T22:39:05.100Z,4.00
2023-02-17T22:41:33.906Z,4.43
2023-02-17T22:44:02.288Z,4.35
2023-02-17T22:46:29.420Z,3.67
2023-02-17T22:48:57.072Z,3.88
2023-02-17T22:51:28.330Z,3.78
2023-02-17T22:53:55.900Z,3.38
2023-02-17T22:56:23.102Z,4.10
2023-02-17T22:58:56.327Z,3.65
2023-02-17T23:01:24.841Z,4.78
2023-02-17T23:03:54.346Z,4.03
2023-02-17T23:06:29.780Z,4.55
2023-02-17T23:08:57.881Z,3.30
2023-02-17T23:11:47.832Z,3.92
2023-02-17T23:14:18.104Z,4.72
2023-02-17T23:16:45.429Z,4.30
2023-02-17T23:19:16.230Z,3.13
2023-02-17T23:21:47.238Z,3.55
2023-02-17T23:24:16.731Z,4.15
2023-02-17T23:26:44.325Z,3.20
2023-02-17T23:29:11.706Z,4.65
2023-02-17T23:31:39.310Z,4.93
2023-02-17T23:34:07.247Z,3.78
2023-02-17T23:36:34.283Z,3.42
2023-02-17T23:39:01.784Z,4.20
2023-02-17T23:41:28.714Z,3.75
2023-02-17T23:43:55.723Z,3.33
2023-02-17T23:46:22.722Z,3.25
2023-02-17T23:48:49.717Z,3.30
2023-02-17T23:51:18.991Z,4.50
2023-02-17T23:53:46.760Z,3.00
2023-02-17T23:56:39.431Z,4.53
2023-02-17T23:59:06.604Z,4.28
